EDXW/GWT METAR and TAF weather

Enter ICAO airport designator
Station Type Date Time Source
EDXW METAR 2019/05/25 14:50 UTC NOAA

EDXW 251450Z 28014KT 9999 FEW018 BKN029 13/09 Q1016


Station Type Date Time Source
EDXW Decoded METAR 2019/05/25 14:50 UTC NOAA

Westerland / Sylt, Germany (EDXW) 54-55N 008-21E 20M
May 25, 2019 - 10:50 AM EDT / 2019.05.25 1450 UTC
Wind: from the W (280 degrees) at 16 MPH (14 KT):0
Visibility: greater than 7 mile(s):0
Sky conditions: mostly cloudy
Temperature: 55 F (13 C)
Dew Point: 48 F (9 C)
Relative Humidity: 76%
Pressure (altimeter): 30.00 in. Hg (1016 hPa)
ob: EDXW 251450Z 28014KT 9999 FEW018 BKN029 13/09 Q1016
cycle: 15

Station Type Date Time Source
EDXW TAF 2009/07/07 14:00 UTC NOAA

TAF EDXW 071400Z 0715/0719 22015G25KT 9999 SCT020

Example: see airport list